Redwood Falls Municipal Airport
KRWF : now visible

Airfield :











YOU CAN JOIN US ON...

 
LOGIN :

Register | Disclaimer

   EN    FR    IT 

 









Legend :    VFR   Marginal VFR   IFR   Intensive IFR   Very Intensive IFR
Visi :
Ceiling :
>= 8 km
>= 3000ft
5 to 8 km
1000 to 3000 ft
1500m to 5 km
500 to 1000 ft
800 to 1500m
200 to 500 ft
< 800m
< 200 ft
Symbols :   Thunderstorms  Fog  Heavy snow  Heavy precipitations  Wind > 20 kt






- Airport Elevation : 1024 ft


KRWF - Redwood Falls Municipal

CURRENT METAR :
  • 121807Z AUTO 35006KT 7SM OVC015 M10/M14 A3005 RMK AO2 T11001144

EXPIRED METARs :
  • 121800Z AUTO 34006KT 6SM HZ OVC013 M10/M14 A3004 RMK AO2 T11001144
  • 121753Z AUTO 36008KT 5SM HZ OVC015 M10/M14 A3004 RMK AO2 SNB16E38 SLP196 P0000 60000 T11001139 11100 21111 50007
  • 121737Z AUTO 36008KT 4SM -SN FEW009 OVC015 M10/M14 A3004 RMK AO2 SNB16 P0000 T11001144
  • 121653Z AUTO 36008KT 5SM HZ OVC015 M11/M14 A3005 RMK AO2 SLP199 T11061139
  • 121641Z AUTO 36008KT 6SM HZ OVC015 M11/M14 A3004 RMK AO2 T11061139
  • 121553Z AUTO 02006KT 7SM OVC014 M11/M14 A3003 RMK AO2 SLP193 T11061139

TAF KRWF
Valid from the 12 at 18:00 until the 13 at 18:00 UTC


121736Z 1218/1318 36006KT P6SM OVC015
FM122100 33005KT P6SM OVC015
FM130800 15005KT P6SM OVC015
FM131500 15006KT 4SM -SN BR OVC015



MET'MAP, your aeronautical weather chart ! - Copyright ORBIFLY December 2007 - Disclaimer

ORBIFLY MET'MAP TEAM :

Programming & Development : Alexandra Zaïnal
Concept & original design : Baudouin d'Aumeries
Assistance for programming : Marc-Olivier Méhu
Technical & hardware support : Manuel Goepfert

Contact : metmap@orbifly.com




SOURCES & CREDITS :

   NOAA       Earth
Advisory